createdAt,value
2017-06-21T00:02:20.998Z,20.70
2017-06-21T00:04:49.029Z,20.70
2017-06-21T00:07:17.337Z,20.60
2017-06-21T00:09:44.877Z,20.60
2017-06-21T00:12:12.610Z,20.60
2017-06-21T00:14:41.372Z,20.50
2017-06-21T00:17:08.917Z,20.50
2017-06-21T00:19:36.461Z,20.50
2017-06-21T00:22:04.048Z,20.50
2017-06-21T00:24:31.597Z,20.40
2017-06-21T00:26:59.498Z,20.40
2017-06-21T00:29:27.036Z,20.30
2017-06-21T00:31:54.574Z,20.30
2017-06-21T00:34:22.586Z,20.30
2017-06-21T00:36:50.131Z,20.20
2017-06-21T00:39:17.722Z,20.20
2017-06-21T00:41:45.270Z,20.20
2017-06-21T00:44:12.878Z,20.10
2017-06-21T00:46:40.421Z,20.10
2017-06-21T00:49:07.963Z,20.10
2017-06-21T00:51:35.662Z,20.10
2017-06-21T00:54:03.209Z,20.00
2017-06-21T00:56:31.857Z,19.90
2017-06-21T00:58:59.407Z,19.90
2017-06-21T01:01:26.941Z,19.90
2017-06-21T01:03:54.775Z,19.90
2017-06-21T01:06:23.082Z,19.80
2017-06-21T01:08:50.626Z,19.80
2017-06-21T01:11:18.621Z,19.80
2017-06-21T01:13:46.163Z,19.80
2017-06-21T01:16:14.082Z,19.70
2017-06-21T01:18:41.933Z,19.70
2017-06-21T01:21:09.477Z,19.70
2017-06-21T01:23:37.022Z,19.70
2017-06-21T01:26:05.037Z,19.60
2017-06-21T01:28:32.583Z,19.60
2017-06-21T01:31:00.125Z,19.60
2017-06-21T01:33:27.794Z,19.50
2017-06-21T01:35:55.330Z,19.50
2017-06-21T01:38:23.733Z,19.40
2017-06-21T01:40:51.306Z,19.40
2017-06-21T01:43:19.189Z,19.40
2017-06-21T01:45:46.731Z,19.40
2017-06-21T01:48:14.286Z,19.40
2017-06-21T01:50:42.278Z,19.30
2017-06-21T01:53:09.817Z,19.30
2017-06-21T01:55:37.361Z,19.30
2017-06-21T01:58:04.957Z,19.30
2017-06-21T02:00:32.494Z,19.20
2017-06-21T02:03:00.038Z,19.20
2017-06-21T02:05:27.910Z,19.10
2017-06-21T02:07:55.462Z,19.10
2017-06-21T02:10:23.014Z,19.10
2017-06-21T02:12:51.653Z,19.00
2017-06-21T02:15:19.337Z,19.00
2017-06-21T02:17:46.882Z,19.00
2017-06-21T02:20:14.457Z,18.90
2017-06-21T02:22:42.037Z,18.90
2017-06-21T02:25:10.342Z,18.80
2017-06-21T02:27:38.109Z,18.80
2017-06-21T02:30:05.647Z,18.80
2017-06-21T02:32:33.954Z,18.70
2017-06-21T02:35:01.845Z,18.70
2017-06-21T02:37:29.382Z,18.70
2017-06-21T02:39:56.922Z,18.70
2017-06-21T02:42:24.572Z,18.60
2017-06-21T02:44:55.473Z,18.60
2017-06-21T02:47:23.025Z,18.50
2017-06-21T02:49:50.601Z,18.50
2017-06-21T02:52:18.182Z,18.50
2017-06-21T02:54:46.521Z,18.50
2017-06-21T02:57:14.102Z,18.50
2017-06-21T02:59:41.809Z,18.50
2017-06-21T03:02:09.349Z,18.50
2017-06-21T03:04:37.702Z,18.40
2017-06-21T03:07:05.237Z,18.40
2017-06-21T03:09:33.222Z,18.40
2017-06-21T03:12:00.767Z,18.40
2017-06-21T03:14:29.417Z,18.40
2017-06-21T03:16:57.364Z,18.50
2017-06-21T03:19:25.673Z,18.80
2017-06-21T03:21:53.221Z,18.80
2017-06-21T03:24:22.147Z,18.90
2017-06-21T03:26:49.692Z,18.90
2017-06-21T03:29:17.240Z,19.00
2017-06-21T03:31:44.989Z,19.00
2017-06-21T03:34:13.442Z,19.00
2017-06-21T03:36:40.998Z,19.00
2017-06-21T03:39:08.597Z,19.00
2017-06-21T03:41:36.141Z,19.00
2017-06-21T03:44:04.790Z,19.00
2017-06-21T03:46:32.410Z,19.10
2017-06-21T03:49:01.574Z,19.00
2017-06-21T03:51:29.121Z,19.00
2017-06-21T03:53:56.663Z,18.90
2017-06-21T03:56:24.278Z,18.80
2017-06-21T03:58:52.925Z,18.70
2017-06-21T04:01:20.466Z,18.70
2017-06-21T04:03:48.016Z,18.60
2017-06-21T04:06:16.185Z,18.60
2017-06-21T04:08:43.733Z,18.60
2017-06-21T04:11:11.277Z,18.50
2017-06-21T04:13:39.630Z,18.50
2017-06-21T04:16:07.647Z,18.50
2017-06-21T04:18:35.194Z,18.50
2017-06-21T04:21:02.786Z,18.50
2017-06-21T04:23:30.329Z,18.40
2017-06-21T04:25:58.173Z,18.50
2017-06-21T04:28:26.491Z,18.50
2017-06-21T04:30:54.070Z,18.40
2017-06-21T04:33:21.613Z,18.50
2017-06-21T04:35:49.511Z,18.50
2017-06-21T04:38:17.052Z,18.50
2017-06-21T04:40:44.594Z,18.60
2017-06-21T04:43:17.218Z,18.70
2017-06-21T04:45:44.760Z,18.70
2017-06-21T04:48:12.328Z,18.70
2017-06-21T04:50:39.909Z,18.70
2017-06-21T04:53:07.458Z,18.80
2017-06-21T04:55:35.053Z,18.80
2017-06-21T04:58:02.602Z,18.80
2017-06-21T05:00:31.122Z,18.90
2017-06-21T05:02:58.666Z,18.90
2017-06-21T05:05:26.578Z,18.90
2017-06-21T05:07:54.121Z,19.00
2017-06-21T05:10:21.666Z,19.00
2017-06-21T05:12:49.251Z,19.10
2017-06-21T05:15:17.193Z,19.10
2017-06-21T05:17:45.301Z,19.10
2017-06-21T05:20:12.844Z,19.20
2017-06-21T05:22:40.389Z,19.20
2017-06-21T05:25:07.970Z,19.20
2017-06-21T05:27:35.517Z,19.30
2017-06-21T05:30:03.509Z,19.30
2017-06-21T05:32:31.058Z,19.40
2017-06-21T05:34:58.601Z,19.50
2017-06-21T05:37:26.805Z,19.50
2017-06-21T05:39:54.349Z,19.60
2017-06-21T05:42:21.889Z,19.60
2017-06-21T05:44:49.470Z,19.70
2017-06-21T05:47:17.018Z,19.80
2017-06-21T05:49:44.913Z,19.80
2017-06-21T05:52:12.458Z,19.90
2017-06-21T05:54:40.005Z,20.00
2017-06-21T05:57:07.767Z,20.00
2017-06-21T05:59:35.322Z,20.10
2017-06-21T06:02:02.873Z,20.20
2017-06-21T06:04:30.460Z,20.20
2017-06-21T06:06:58.013Z,20.30
2017-06-21T06:09:25.608Z,20.40
2017-06-21T06:11:53.498Z,20.40
2017-06-21T06:14:21.805Z,20.60
2017-06-21T06:16:49.550Z,20.60
2017-06-21T06:19:18.013Z,20.70
2017-06-21T06:21:45.571Z,20.70
2017-06-21T06:24:13.122Z,20.80
2017-06-21T06:26:43.542Z,20.90
2017-06-21T06:29:11.090Z,20.90
2017-06-21T06:31:38.640Z,21.00
2017-06-21T06:34:06.789Z,21.10
2017-06-21T06:36:34.430Z,21.10
2017-06-21T06:39:01.981Z,21.20
2017-06-21T06:41:30.298Z,21.40
2017-06-21T06:43:58.017Z,21.40
2017-06-21T06:46:25.564Z,21.50
2017-06-21T06:48:53.162Z,21.60
2017-06-21T06:51:20.713Z,21.70
2017-06-21T06:53:49.059Z,21.90
2017-06-21T06:56:16.601Z,21.90
2017-06-21T06:58:44.293Z,22.00
2017-06-21T07:01:11.837Z,22.10
2017-06-21T07:03:39.377Z,22.20
2017-06-21T07:06:07.067Z,22.30
2017-06-21T07:08:34.625Z,22.40
2017-06-21T07:11:02.211Z,22.50
2017-06-21T07:13:29.758Z,22.60
2017-06-21T07:15:57.497Z,22.70
2017-06-21T07:18:25.082Z,22.80
2017-06-21T07:20:52.633Z,22.90
2017-06-21T07:23:20.282Z,23.10
2017-06-21T07:25:47.826Z,23.20
2017-06-21T07:28:15.459Z,23.30
2017-06-21T07:30:43.765Z,23.60
2017-06-21T07:33:11.459Z,23.60
2017-06-21T07:35:39.802Z,23.80
2017-06-21T07:38:07.434Z,23.90
2017-06-21T07:40:34.981Z,24.00
2017-06-21T07:43:02.833Z,24.10
2017-06-21T07:45:30.369Z,24.20
2017-06-21T07:47:57.955Z,24.40
2017-06-21T07:50:25.507Z,24.50
2017-06-21T07:52:53.101Z,24.60
2017-06-21T07:55:21.413Z,24.90
2017-06-21T07:57:49.022Z,24.90
2017-06-21T08:00:21.994Z,25.00
2017-06-21T08:02:49.538Z,25.10
2017-06-21T08:05:17.085Z,25.20
2017-06-21T08:07:44.674Z,25.30
2017-06-21T08:10:12.211Z,25.40
2017-06-21T08:12:39.798Z,25.50
2017-06-21T08:15:07.342Z,25.70
2017-06-21T08:17:36.037Z,25.70
2017-06-21T08:20:03.579Z,25.80
2017-06-21T08:22:31.124Z,25.90
2017-06-21T08:24:59.322Z,26.00
2017-06-21T08:27:26.866Z,26.10
2017-06-21T08:29:54.869Z,26.20
2017-06-21T08:32:22.582Z,26.40
2017-06-21T08:34:50.124Z,26.50
2017-06-21T08:37:18.878Z,26.70
2017-06-21T08:39:46.422Z,26.70
2017-06-21T08:42:13.970Z,26.80
2017-06-21T08:44:41.865Z,26.80
2017-06-21T08:47:09.412Z,26.80
2017-06-21T08:49:36.950Z,26.90
2017-06-21T08:52:04.666Z,27.00
2017-06-21T08:54:32.278Z,27.10
2017-06-21T08:56:59.817Z,27.20
2017-06-21T08:59:28.117Z,27.30
2017-06-21T09:01:55.977Z,27.20
2017-06-21T09:04:23.517Z,27.30
2017-06-21T09:06:51.825Z,27.60
2017-06-21T09:09:19.594Z,27.60
2017-06-21T09:11:47.173Z,27.70
2017-06-21T09:14:14.714Z,27.80
2017-06-21T09:16:42.405Z,27.90
2017-06-21T09:19:10.221Z,28.00
2017-06-21T09:21:37.765Z,28.00
2017-06-21T09:24:06.250Z,28.30
2017-06-21T09:26:33.786Z,28.30
2017-06-21T09:29:01.517Z,28.40
2017-06-21T09:31:29.094Z,28.50
2017-06-21T09:33:56.657Z,28.50
2017-06-21T09:36:24.233Z,28.50
2017-06-21T09:38:51.814Z,28.60
2017-06-21T09:41:20.119Z,28.80
2017-06-21T09:43:49.603Z,28.80
2017-06-21T09:46:17.910Z,29.00
2017-06-21T09:48:45.450Z,28.90
2017-06-21T09:51:13.062Z,29.00
2017-06-21T09:53:40.842Z,29.00
2017-06-21T09:56:08.446Z,29.00
2017-06-21T09:58:36.556Z,29.00
2017-06-21T10:01:04.094Z,29.10
2017-06-21T10:03:31.642Z,29.20
2017-06-21T10:05:59.227Z,29.20
2017-06-21T10:08:26.805Z,29.30
2017-06-21T10:10:54.350Z,29.30
2017-06-21T10:13:24.591Z,29.40
2017-06-21T10:15:52.145Z,29.50
2017-06-21T10:18:19.690Z,29.50
2017-06-21T10:20:47.550Z,29.50
2017-06-21T10:23:15.090Z,29.60
2017-06-21T10:25:42.677Z,29.60
2017-06-21T10:28:10.277Z,29.70
2017-06-21T10:30:37.818Z,29.90
2017-06-21T10:33:05.366Z,30.00
2017-06-21T10:35:33.049Z,30.10
2017-06-21T10:38:00.598Z,30.20
2017-06-21T10:40:28.181Z,30.20
2017-06-21T10:42:55.729Z,30.30
2017-06-21T10:45:23.318Z,30.40
2017-06-21T10:47:51.631Z,30.50
2017-06-21T10:50:23.241Z,30.50
2017-06-21T10:52:50.783Z,30.60
2017-06-21T10:55:18.322Z,30.70
2017-06-21T10:57:46.318Z,30.80
2017-06-21T11:00:13.857Z,30.90
2017-06-21T11:02:41.445Z,30.90
2017-06-21T11:05:09.030Z,31.00
2017-06-21T11:07:37.586Z,31.20
2017-06-21T11:10:05.137Z,31.10
2017-06-21T11:12:32.674Z,31.20
2017-06-21T11:15:00.258Z,31.20
2017-06-21T11:17:28.330Z,31.30
2017-06-21T11:19:55.878Z,31.30
2017-06-21T11:22:26.696Z,31.40
2017-06-21T11:24:54.591Z,31.40
2017-06-21T11:27:22.137Z,31.50
2017-06-21T11:29:49.753Z,31.50
2017-06-21T11:32:18.054Z,31.60
2017-06-21T11:34:45.605Z,31.60
2017-06-21T11:37:13.200Z,31.70
2017-06-21T11:39:41.056Z,31.70
2017-06-21T11:42:08.607Z,31.80
2017-06-21T11:44:36.469Z,31.90
2017-06-21T11:47:04.019Z,31.90
2017-06-21T11:49:31.563Z,31.90
2017-06-21T11:51:59.303Z,32.00
2017-06-21T11:54:27.153Z,32.00
2017-06-21T11:56:54.697Z,31.90
2017-06-21T11:59:22.681Z,31.90
2017-06-21T12:01:50.229Z,31.90
2017-06-21T12:04:17.789Z,32.00
2017-06-21T12:06:45.393Z,32.10
2017-06-21T12:09:12.931Z,32.20
2017-06-21T12:11:40.694Z,32.30
2017-06-21T12:14:08.677Z,32.40
2017-06-21T12:16:36.218Z,32.50
2017-06-21T12:19:04.150Z,32.60
2017-06-21T12:21:31.728Z,32.70
2017-06-21T12:23:59.615Z,32.80
2017-06-21T12:26:27.153Z,32.80
2017-06-21T12:28:54.697Z,32.80
2017-06-21T12:31:22.430Z,32.80
2017-06-21T12:33:50.741Z,32.70
2017-06-21T12:36:18.659Z,32.70
2017-06-21T12:38:46.198Z,32.80
2017-06-21T12:41:13.767Z,32.90
2017-06-21T12:43:41.629Z,33.00
2017-06-21T12:46:09.162Z,33.00
2017-06-21T12:48:36.701Z,33.00
2017-06-21T12:51:05.276Z,33.00
2017-06-21T12:53:33.626Z,33.10
2017-06-21T12:56:01.173Z,33.10
2017-06-21T12:58:29.030Z,33.20
2017-06-21T13:00:56.567Z,33.30
2017-06-21T13:03:24.117Z,33.30
2017-06-21T13:05:52.088Z,33.40
2017-06-21T13:08:19.634Z,33.50
2017-06-21T13:10:47.943Z,33.80
2017-06-21T13:13:15.539Z,33.70
2017-06-21T13:15:43.082Z,33.70
2017-06-21T13:18:11.171Z,33.70
2017-06-21T13:20:38.713Z,33.80
2017-06-21T13:23:06.254Z,33.70
2017-06-21T13:25:33.833Z,33.70
2017-06-21T13:28:01.374Z,33.80
2017-06-21T13:30:29.070Z,33.70
2017-06-21T13:32:56.611Z,33.70
2017-06-21T13:35:24.149Z,33.70
2017-06-21T13:37:51.802Z,33.60
2017-06-21T13:40:19.377Z,33.50
2017-06-21T13:42:46.963Z,33.50
2017-06-21T13:45:14.841Z,33.50
2017-06-21T13:47:42.382Z,33.60
2017-06-21T13:50:09.926Z,33.60
2017-06-21T13:52:37.884Z,33.60
2017-06-21T13:55:05.441Z,33.50
2017-06-21T14:00:36.787Z,33.50
2017-06-21T14:03:04.325Z,33.50
2017-06-21T14:05:31.861Z,33.60
2017-06-21T14:07:59.446Z,33.70
2017-06-21T14:10:27.309Z,33.70
2017-06-21T14:12:54.850Z,33.70
2017-06-21T14:15:22.394Z,33.70
2017-06-21T14:17:55.987Z,33.70
2017-06-21T14:20:23.525Z,33.80
2017-06-21T14:22:51.826Z,33.70
2017-06-21T14:25:19.701Z,33.70
2017-06-21T14:27:47.238Z,33.70
2017-06-21T14:30:15.541Z,33.70
2017-06-21T14:32:43.134Z,33.70
2017-06-21T14:35:10.674Z,33.70
2017-06-21T14:37:38.540Z,33.70
2017-06-21T14:40:06.082Z,33.70
2017-06-21T14:42:33.622Z,33.70
2017-06-21T14:45:01.202Z,33.70
2017-06-21T14:47:28.779Z,33.90
2017-06-21T14:49:56.365Z,34.00
2017-06-21T14:52:23.899Z,34.10
2017-06-21T14:54:52.509Z,34.20
2017-06-21T14:57:20.070Z,34.30
2017-06-21T14:59:47.606Z,34.40
2017-06-21T15:02:15.186Z,34.60
2017-06-21T15:04:42.763Z,34.70
2017-06-21T15:07:10.314Z,34.80
2017-06-21T15:09:37.906Z,34.90
2017-06-21T15:12:06.214Z,34.50
2017-06-21T15:14:33.762Z,34.50
2017-06-21T15:17:01.535Z,34.40
2017-06-21T15:19:29.494Z,34.40
2017-06-21T15:21:57.238Z,34.40
2017-06-21T15:24:25.542Z,34.60
2017-06-21T15:26:53.083Z,34.60
2017-06-21T15:29:21.438Z,34.70
2017-06-21T15:31:49.206Z,34.60
2017-06-21T15:34:16.750Z,34.80
2017-06-21T15:36:44.329Z,34.80
2017-06-21T15:39:12.297Z,34.80
2017-06-21T15:41:39.834Z,35.00
2017-06-21T15:44:07.378Z,35.00
2017-06-21T15:46:40.398Z,35.00
2017-06-21T15:49:07.937Z,35.00
2017-06-21T15:51:35.482Z,35.10
2017-06-21T15:54:03.065Z,35.10
2017-06-21T15:56:31.145Z,35.20
2017-06-21T15:58:58.689Z,35.30
2017-06-21T16:01:26.222Z,35.40
2017-06-21T16:03:54.334Z,35.40
2017-06-21T16:06:21.876Z,35.50
2017-06-21T16:08:49.414Z,35.50
2017-06-21T16:11:16.998Z,35.60
2017-06-21T16:13:44.541Z,35.70
2017-06-21T16:16:12.117Z,35.80
2017-06-21T16:18:40.055Z,35.90
2017-06-21T16:21:07.698Z,36.00
2017-06-21T16:23:36.011Z,36.10
2017-06-21T16:26:03.597Z,36.10
2017-06-21T16:28:31.173Z,36.10
2017-06-21T16:30:58.721Z,36.20
2017-06-21T16:33:26.298Z,36.30
2017-06-21T16:35:53.838Z,36.40
2017-06-21T16:38:25.548Z,36.50
2017-06-21T16:40:53.091Z,36.40
2017-06-21T16:43:21.030Z,36.30
2017-06-21T16:45:48.570Z,36.30
2017-06-21T16:48:16.109Z,36.30
2017-06-21T16:50:43.731Z,36.40
2017-06-21T16:53:11.276Z,36.40
2017-06-21T16:55:39.022Z,36.40
2017-06-21T16:58:06.556Z,36.40
2017-06-21T17:00:34.221Z,36.40
2017-06-21T17:03:01.761Z,36.40
2017-06-21T17:05:30.104Z,36.40
2017-06-21T17:07:57.748Z,36.40
2017-06-21T17:10:25.306Z,36.30
2017-06-21T17:12:53.034Z,36.00
2017-06-21T17:15:20.587Z,35.70
2017-06-21T17:17:49.069Z,35.10
2017-06-21T17:20:17.773Z,34.90
2017-06-21T17:22:45.315Z,34.90
2017-06-21T17:25:13.661Z,34.30
2017-06-21T17:27:41.253Z,34.30
2017-06-21T17:30:09.562Z,33.70
2017-06-21T17:32:37.225Z,33.70
2017-06-21T17:35:04.757Z,33.50
2017-06-21T17:37:33.060Z,33.00
2017-06-21T17:40:00.659Z,33.00
2017-06-21T17:42:28.201Z,32.80
2017-06-21T17:44:55.912Z,32.60
2017-06-21T17:47:24.228Z,32.20
2017-06-21T17:49:51.770Z,32.20
2017-06-21T17:52:19.638Z,32.10
2017-06-21T17:54:47.224Z,32.00
2017-06-21T17:57:14.813Z,32.00
2017-06-21T17:59:42.360Z,31.90
2017-06-21T18:02:09.951Z,31.80
2017-06-21T18:04:37.533Z,31.70
2017-06-21T18:07:05.079Z,31.50
2017-06-21T18:09:35.440Z,31.20
2017-06-21T18:12:02.981Z,31.20
2017-06-21T18:14:30.517Z,31.10
2017-06-21T18:16:58.093Z,31.00
2017-06-21T18:19:26.522Z,30.80
2017-06-21T18:21:54.102Z,30.80
2017-06-21T18:24:21.636Z,30.70
2017-06-21T18:26:49.426Z,30.60
2017-06-21T18:29:17.692Z,30.50
2017-06-21T18:31:45.230Z,30.40
2017-06-21T18:34:12.777Z,30.30
2017-06-21T18:36:40.389Z,30.20
2017-06-21T18:39:07.933Z,30.10
2017-06-21T18:41:35.764Z,30.00
2017-06-21T18:44:03.574Z,29.90
2017-06-21T18:46:31.114Z,29.80
2017-06-21T18:48:59.934Z,29.80
2017-06-21T18:51:27.473Z,29.70
2017-06-21T18:53:55.453Z,29.50
2017-06-21T18:56:23.022Z,29.40
2017-06-21T18:58:50.553Z,29.30
2017-06-21T19:01:18.650Z,29.20
2017-06-21T19:03:46.190Z,29.10
2017-06-21T19:06:13.729Z,29.00
2017-06-21T19:08:46.446Z,29.00
2017-06-21T19:11:13.989Z,28.90
2017-06-21T19:13:41.524Z,28.80
2017-06-21T19:16:09.109Z,28.80
2017-06-21T19:18:36.653Z,28.70
2017-06-21T19:21:04.395Z,28.60
2017-06-21T19:23:32.702Z,28.40
2017-06-21T19:26:00.294Z,28.40
2017-06-21T19:28:27.877Z,28.20
2017-06-21T19:30:56.402Z,28.10
2017-06-21T19:33:23.969Z,28.00
2017-06-21T19:35:51.509Z,28.00
2017-06-21T19:38:19.317Z,27.90
2017-06-21T19:40:52.662Z,27.80
2017-06-21T19:43:20.241Z,27.70
2017-06-21T19:45:47.822Z,27.60
2017-06-21T19:48:15.365Z,27.60
2017-06-21T19:50:42.905Z,27.50
2017-06-21T19:53:10.557Z,27.40
2017-06-21T19:55:38.865Z,27.30
2017-06-21T19:58:06.442Z,27.30
2017-06-21T20:00:33.989Z,27.20
2017-06-21T20:03:01.639Z,27.10
2017-06-21T20:05:29.177Z,27.10
2017-06-21T20:07:57.206Z,27.00
2017-06-21T20:10:24.747Z,27.00
2017-06-21T20:12:52.299Z,26.90
2017-06-21T20:15:20.195Z,26.80
2017-06-21T20:17:47.749Z,26.80
2017-06-21T20:20:16.128Z,26.70
2017-06-21T20:22:43.700Z,26.60
2017-06-21T20:25:12.860Z,26.50
2017-06-21T20:27:40.786Z,26.50
2017-06-21T20:30:08.325Z,26.50
2017-06-21T20:32:36.057Z,26.40
2017-06-21T20:35:03.598Z,26.30
2017-06-21T20:37:31.141Z,26.20
2017-06-21T20:40:03.573Z,26.20
2017-06-21T20:42:31.341Z,26.10
2017-06-21T20:44:58.877Z,26.00
2017-06-21T20:47:26.457Z,25.90
2017-06-21T20:49:54.001Z,25.90
2017-06-21T20:52:21.585Z,25.90
2017-06-21T20:54:49.129Z,25.80
2017-06-21T20:57:16.833Z,25.70
2017-06-21T20:59:44.776Z,25.70
2017-06-21T21:02:12.322Z,25.60
2017-06-21T21:04:39.867Z,25.50
2017-06-21T21:07:08.171Z,25.40
2017-06-21T21:09:35.714Z,25.30
2017-06-21T21:12:03.258Z,25.20
2017-06-21T21:14:31.366Z,25.10
2017-06-21T21:16:58.901Z,25.10
2017-06-21T21:19:26.442Z,25.00
2017-06-21T21:21:54.344Z,25.00
2017-06-21T21:24:21.926Z,24.90
2017-06-21T21:26:49.465Z,24.90
2017-06-21T21:29:18.482Z,24.80
2017-06-21T21:31:46.061Z,24.80
2017-06-21T21:34:20.042Z,24.70
2017-06-21T21:36:47.578Z,24.60
2017-06-21T21:39:15.120Z,24.60
2017-06-21T21:41:42.698Z,24.60
2017-06-21T21:44:10.243Z,24.40
2017-06-21T21:46:37.831Z,24.40
2017-06-21T21:49:05.380Z,24.40
2017-06-21T21:51:33.261Z,24.30
2017-06-21T21:54:00.802Z,24.20
2017-06-21T21:56:28.338Z,24.10
2017-06-21T21:58:55.918Z,24.10
2017-06-21T22:01:23.465Z,24.00
2017-06-21T22:03:51.213Z,23.90
2017-06-21T22:06:19.525Z,23.80
2017-06-21T22:08:47.370Z,23.80
2017-06-21T22:11:14.909Z,23.70
2017-06-21T22:13:50.963Z,23.70
2017-06-21T22:16:18.502Z,23.60
2017-06-21T22:18:48.830Z,23.50
2017-06-21T22:21:16.785Z,23.50
2017-06-21T22:23:47.269Z,23.40
2017-06-21T22:29:05.900Z,23.20
2017-06-21T22:31:45.417Z,23.20
2017-06-21T22:34:17.273Z,23.20
2017-06-21T22:39:43.447Z,23.00
2017-06-21T22:42:10.989Z,23.00
2017-06-21T22:44:38.537Z,22.90
2017-06-21T22:47:06.385Z,22.90
2017-06-21T22:49:33.930Z,22.80
2017-06-21T22:52:01.470Z,22.80
2017-06-21T22:54:29.126Z,22.70
2017-06-21T22:56:56.710Z,22.70
2017-06-21T22:59:24.253Z,22.60
2017-06-21T23:01:51.838Z,22.60
2017-06-21T23:04:19.392Z,22.50
2017-06-21T23:06:47.081Z,22.50
2017-06-21T23:09:14.621Z,22.40
2017-06-21T23:11:42.929Z,22.30
2017-06-21T23:14:10.517Z,22.30
2017-06-21T23:16:38.110Z,22.20
2017-06-21T23:19:06.426Z,22.10
2017-06-21T23:21:33.971Z,22.10
2017-06-21T23:24:01.804Z,22.10
2017-06-21T23:26:30.129Z,22.00
2017-06-21T23:28:59.574Z,22.00
2017-06-21T23:31:27.113Z,21.90
2017-06-21T23:39:37.117Z,21.80
2017-06-21T23:42:05.005Z,21.80
2017-06-21T23:58:46.548Z,21.50
